Time;durP1;ratioP1;P1;durP2;ratioP2;P2;SDS_P1;SDS_P2;PMS_P1;PMS_P2;Temp;Humidity;BMP_temperature;BMP_pressure;BME280_temperature;BME280_humidity;BME280_pressure;Samples;Min_cycle;Max_cycle;Signal;HPM_P1;HPM_P2
2023/06/25 00:00:24;;;;;;;4.40;3.95;;;;;;;;;;5037579;28;20306;-73
2023/06/25 00:02:49;;;;;;;4.43;3.70;;;;;;;;;;5037583;28;20514;-75
2023/06/25 00:05:15;;;;;;;5.20;3.92;;;;;;;;;;5037363;28;20033;-76
2023/06/25 00:07:40;;;;;;;4.47;4.18;;;;;;;;;;5055755;28;20418;-75
2023/06/25 00:10:06;;;;;;;4.28;3.88;;;;;;;;;;5037351;28;20037;-76
2023/06/25 00:12:32;;;;;;;6.90;4.38;;;;;;;;;;5055332;28;20479;-75
2023/06/25 00:14:57;;;;;;;3.70;3.28;;;;;;;;;;5055213;28;20114;-75
2023/06/25 00:17:27;;;;;;;4.20;3.53;;;;;;;;;;5037488;28;20083;-76
2023/06/25 00:19:55;;;;;;;4.20;3.75;;;;;;;;;;5021131;28;20029;-75
2023/06/25 00:22:20;;;;;;;4.85;3.55;;;;;;;;;;5055923;28;20025;-76
2023/06/25 00:24:45;;;;;;;5.75;4.72;;;;;;;;;;5037041;28;20545;-78
2023/06/25 00:27:10;;;;;;;5.93;5.40;;;;;;;;;;5033495;28;20038;-75
2023/06/25 00:29:36;;;;;;;5.53;5.00;;;;;;;;;;5035402;28;20029;-75
2023/06/25 00:32:02;;;;;;;4.35;4.03;;;;;;;;;;5035217;28;20383;-75
2023/06/25 00:34:27;;;;;;;4.32;3.83;;;;;;;;;;5034060;28;20068;-74
2023/06/25 00:36:54;;;;;;;5.38;4.88;;;;;;;;;;5034007;28;20134;-74
2023/06/25 00:39:19;;;;;;;5.22;4.18;;;;;;;;;;5035271;28;20112;-76
2023/06/25 00:41:45;;;;;;;4.80;4.40;;;;;;;;;;5035285;28;20061;-75
2023/06/25 00:44:10;;;;;;;5.63;4.32;;;;;;;;;;5033998;28;20475;-75
2023/06/25 00:46:37;;;;;;;5.72;5.13;;;;;;;;;;5033398;28;20060;-74
2023/06/25 00:49:05;;;;;;;5.30;4.68;;;;;;;;;;5033413;28;20487;-74
2023/06/25 00:51:35;;;;;;;5.47;4.72;;;;;;;;;;5033612;28;20451;-74
2023/06/25 00:54:04;;;;;;;5.57;5.07;;;;;;;;;;5035267;28;20040;-74
2023/06/25 00:56:31;;;;;;;6.18;5.57;;;;;;;;;;5033256;28;20083;-74
2023/06/25 00:59:00;;;;;;;6.10;5.50;;;;;;;;;;5034751;28;20040;-76
2023/06/25 01:01:31;;;;;;;8.73;5.60;;;;;;;;;;5033907;28;20407;-75
2023/06/25 01:04:00;;;;;;;6.30;5.18;;;;;;;;;;5033825;28;20521;-76
2023/06/25 01:06:35;;;;;;;5.53;4.55;;;;;;;;;;5032288;28;20025;-79
2023/06/25 01:09:01;;;;;;;5.20;4.80;;;;;;;;;;5033095;28;20523;-79
2023/06/25 01:11:27;;;;;;;6.47;5.22;;;;;;;;;;5033034;28;20060;-78
2023/06/25 01:13:54;;;;;;;5.75;5.00;;;;;;;;;;5032965;28;20021;-78
2023/06/25 01:16:19;;;;;;;5.53;5.00;;;;;;;;;;5034252;28;20034;-78
2023/06/25 01:18:44;;;;;;;6.97;5.38;;;;;;;;;;5034301;28;20368;-76
2023/06/25 01:21:10;;;;;;;7.95;5.70;;;;;;;;;;5033668;28;20037;-79
2023/06/25 01:23:37;;;;;;;6.20;5.63;;;;;;;;;;5032886;28;20468;-79
2023/06/25 01:26:02;;;;;;;7.40;6.63;;;;;;;;;;5016264;28;20033;-76
2023/06/25 01:28:28;;;;;;;7.30;6.43;;;;;;;;;;5048519;28;20057;-75
2023/06/25 01:30:54;;;;;;;8.40;6.10;;;;;;;;;;5054173;28;20029;-76
2023/06/25 01:33:20;;;;;;;7.20;6.50;;;;;;;;;;5036535;28;20040;-76
2023/06/25 01:35:46;;;;;;;8.25;5.85;;;;;;;;;;5053851;28;20017;-76
2023/06/25 01:38:12;;;;;;;8.13;6.05;;;;;;;;;;5036825;28;20120;-76
2023/06/25 01:40:37;;;;;;;6.05;5.50;;;;;;;;;;5054322;28;20025;-76
2023/06/25 01:43:02;;;;;;;6.65;5.45;;;;;;;;;;5054245;28;20037;-76
2023/06/25 01:45:28;;;;;;;5.45;4.93;;;;;;;;;;5035790;28;20078;-76
2023/06/25 01:47:53;;;;;;;6.25;5.47;;;;;;;;;;5053929;28;20025;-76
2023/06/25 01:50:18;;;;;;;7.28;5.50;;;;;;;;;;5036335;28;20009;-75
2023/06/25 01:52:44;;;;;;;7.45;6.07;;;;;;;;;;5053772;28;20021;-76
2023/06/25 01:55:10;;;;;;;6.57;5.90;;;;;;;;;;5035812;28;20037;-75
2023/06/25 01:57:35;;;;;;;6.50;5.82;;;;;;;;;;5035696;28;20036;-76
2023/06/25 02:00:01;;;;;;;6.78;6.07;;;;;;;;;;5035986;28;20020;-76
2023/06/25 02:02:26;;;;;;;6.32;5.75;;;;;;;;;;5054262;28;20040;-73
2023/06/25 02:04:53;;;;;;;7.60;5.40;;;;;;;;;;5049017;28;20036;-75
2023/06/25 02:07:18;;;;;;;6.20;5.38;;;;;;;;;;5051926;28;20118;-76
2023/06/25 02:09:43;;;;;;;6.00;5.40;;;;;;;;;;5052271;28;20017;-76
2023/06/25 02:12:09;;;;;;;6.03;5.40;;;;;;;;;;5052394;28;20025;-77
2023/06/25 02:14:39;;;;;;;6.13;5.50;;;;;;;;;;5052157;28;20453;-77
2023/06/25 02:17:04;;;;;;;6.20;5.60;;;;;;;;;;5054233;28;20078;-77
2023/06/25 02:19:31;;;;;;;7.80;5.75;;;;;;;;;;5056838;28;20467;-77
2023/06/25 02:21:56;;;;;;;9.20;6.32;;;;;;;;;;5056872;28;20071;-77
2023/06/25 02:24:22;;;;;;;13.95;7.20;;;;;;;;;;5039725;28;20056;-77
2023/06/25 02:26:48;;;;;;;15.05;7.50;;;;;;;;;;5055848;28;20029;-77
2023/06/25 02:29:13;;;;;;;15.43;8.60;;;;;;;;;;5056639;28;20029;-77
2023/06/25 02:31:38;;;;;;;14.55;8.75;;;;;;;;;;5039317;28;20032;-77
2023/06/25 02:36:49;;;;;;;19.48;9.27;;;;;;;;;;5064116;22;20052;-75
2023/06/25 02:39:15;;;;;;;20.55;10.45;;;;;;;;;;5072469;28;20029;-75
2023/06/25 02:41:40;;;;;;;22.63;10.80;;;;;;;;;;5055976;28;20033;-75
2023/06/25 02:44:06;;;;;;;25.13;11.23;;;;;;;;;;5072928;28;20025;-73
2023/06/25 02:46:35;;;;;;;24.90;11.63;;;;;;;;;;5057195;28;20474;-73
2023/06/25 02:49:00;;;;;;;20.20;10.65;;;;;;;;;;5072508;28;20017;-73
2023/06/25 02:51:26;;;;;;;25.38;12.07;;;;;;;;;;5055752;28;20036;-73
2023/06/25 02:53:51;;;;;;;19.75;11.07;;;;;;;;;;5072604;28;20021;-73
2023/06/25 02:56:18;;;;;;;21.05;11.07;;;;;;;;;;5056985;28;20455;-73
2023/06/25 02:58:43;;;;;;;19.73;11.15;;;;;;;;;;5057014;28;20029;-73
2023/06/25 03:01:11;;;;;;;21.02;11.45;;;;;;;;;;5055681;28;20029;-73
2023/06/25 03:03:36;;;;;;;23.08;11.35;;;;;;;;;;5072714;28;20078;-73
2023/06/25 03:06:02;;;;;;;16.65;10.50;;;;;;;;;;5072352;28;20092;-74
2023/06/25 03:08:27;;;;;;;11.45;8.23;;;;;;;;;;5055564;28;20379;-74
2023/06/25 03:10:53;;;;;;;10.50;8.13;;;;;;;;;;5072295;28;20040;-75
2023/06/25 03:13:18;;;;;;;12.32;8.90;;;;;;;;;;5072415;28;20025;-75
2023/06/25 03:15:44;;;;;;;13.30;8.82;;;;;;;;;;5072373;28;20032;-75
2023/06/25 03:18:09;;;;;;;9.90;7.43;;;;;;;;;;5055573;28;20029;-75
2023/06/25 03:20:35;;;;;;;13.35;9.23;;;;;;;;;;5056318;28;20100;-76
2023/06/25 03:23:00;;;;;;;14.98;9.60;;;;;;;;;;5055012;28;20048;-76
2023/06/25 03:25:26;;;;;;;12.98;9.38;;;;;;;;;;5054887;28;20025;-76
2023/06/25 03:28:05;;;;;;;13.18;8.38;;;;;;;;;;5070470;28;20424;-77
2023/06/25 03:30:31;;;;;;;10.25;7.88;;;;;;;;;;5054046;28;20048;-75
2023/06/25 03:32:56;;;;;;;11.60;8.18;;;;;;;;;;5055028;28;20028;-75
2023/06/25 03:35:22;;;;;;;12.38;8.27;;;;;;;;;;5055003;28;20041;-75
2023/06/25 03:37:47;;;;;;;10.38;7.90;;;;;;;;;;5055373;28;20037;-76
2023/06/25 03:40:12;;;;;;;9.38;6.43;;;;;;;;;;5054829;28;20078;-77
2023/06/25 03:42:38;;;;;;;7.57;6.22;;;;;;;;;;5055912;28;20128;-76
2023/06/25 03:45:05;;;;;;;7.53;6.10;;;;;;;;;;5072040;28;20043;-77
2023/06/25 03:47:34;;;;;;;9.10;7.18;;;;;;;;;;5071674;28;20036;-77
2023/06/25 03:49:59;;;;;;;9.98;7.10;;;;;;;;;;5054510;28;20075;-77
2023/06/25 03:52:25;;;;;;;9.57;6.88;;;;;;;;;;5054718;28;20033;-77
2023/06/25 03:54:50;;;;;;;10.50;6.90;;;;;;;;;;5038629;28;20401;-77
2023/06/25 03:57:16;;;;;;;13.00;7.57;;;;;;;;;;5054338;28;20021;-77
2023/06/25 03:59:41;;;;;;;9.35;6.85;;;;;;;;;;5054242;28;20032;-77
2023/06/25 04:02:07;;;;;;;9.35;6.93;;;;;;;;;;5054591;28;20052;-77
2023/06/25 04:04:33;;;;;;;6.47;5.50;;;;;;;;;;5054222;28;20383;-77
2023/06/25 04:06:59;;;;;;;8.70;5.88;;;;;;;;;;5054096;28;20025;-76
2023/06/25 04:09:24;;;;;;;5.97;5.20;;;;;;;;;;5054840;28;20029;-76
2023/06/25 04:11:50;;;;;;;5.78;5.20;;;;;;;;;;5037509;28;20025;-78
2023/06/25 04:14:34;;;;;;;8.10;5.93;;;;;;;;;;5055321;28;20360;-77
2023/06/25 04:17:00;;;;;;;6.60;5.95;;;;;;;;;;5055769;28;20108;-77
2023/06/25 04:19:26;;;;;;;6.05;5.47;;;;;;;;;;5053983;28;20115;-76
2023/06/25 04:21:51;;;;;;;6.32;5.68;;;;;;;;;;5054667;28;20455;-76
2023/06/25 04:24:17;;;;;;;5.50;5.03;;;;;;;;;;5054168;28;20029;-74
2023/06/25 04:26:44;;;;;;;5.47;4.97;;;;;;;;;;5055304;28;20352;-77
2023/06/25 04:29:10;;;;;;;5.30;4.80;;;;;;;;;;5054865;28;20032;-77
2023/06/25 04:31:36;;;;;;;5.68;5.18;;;;;;;;;;5037629;28;20009;-75
2023/06/25 04:34:03;;;;;;;6.28;5.38;;;;;;;;;;5053208;28;20029;-75
2023/06/25 04:36:29;;;;;;;5.43;4.93;;;;;;;;;;5037413;28;20037;-75
2023/06/25 04:38:57;;;;;;;7.90;6.07;;;;;;;;;;5055209;28;20548;-76
2023/06/25 04:41:26;;;;;;;6.93;5.93;;;;;;;;;;5053485;28;20053;-76
2023/06/25 04:43:51;;;;;;;6.43;5.75;;;;;;;;;;5053785;28;20033;-76
2023/06/25 04:46:17;;;;;;;6.55;5.85;;;;;;;;;;5054072;28;20040;-76
2023/06/25 04:48:46;;;;;;;8.23;6.70;;;;;;;;;;5053571;28;20479;-76
2023/06/25 04:51:11;;;;;;;7.38;5.65;;;;;;;;;;5037155;28;20021;-75
2023/06/25 04:53:39;;;;;;;7.30;6.22;;;;;;;;;;5068425;22;20113;-81
2023/06/25 04:56:06;;;;;;;8.18;6.65;;;;;;;;;;5046981;22;20046;-82
2023/06/25 04:58:31;;;;;;;9.27;6.85;;;;;;;;;;5032427;28;20053;-76
2023/06/25 05:00:56;;;;;;;8.13;6.65;;;;;;;;;;5049571;22;20118;-73
2023/06/25 05:03:22;;;;;;;8.35;6.70;;;;;;;;;;5034433;28;20049;-73
2023/06/25 05:05:47;;;;;;;9.25;7.20;;;;;;;;;;5034526;28;20028;-71
2023/06/25 05:08:12;;;;;;;11.05;7.30;;;;;;;;;;5033100;28;20028;-68
2023/06/25 05:10:41;;;;;;;9.18;7.10;;;;;;;;;;5034318;28;20371;-78
2023/06/25 05:13:06;;;;;;;10.13;7.78;;;;;;;;;;5034581;28;20361;-76
2023/06/25 05:15:32;;;;;;;10.60;7.75;;;;;;;;;;5034359;28;20029;-71
2023/06/25 05:17:57;;;;;;;9.60;7.85;;;;;;;;;;5033332;28;20065;-65
2023/06/25 05:20:23;;;;;;;9.57;7.80;;;;;;;;;;5034071;28;20134;-65
2023/06/25 05:22:48;;;;;;;13.48;9.15;;;;;;;;;;5033781;28;20036;-64
2023/06/25 05:25:13;;;;;;;10.68;7.97;;;;;;;;;;5049193;28;20036;-64
2023/06/25 05:27:38;;;;;;;9.95;8.50;;;;;;;;;;5034094;28;20033;-63
2023/06/25 05:30:04;;;;;;;12.05;8.50;;;;;;;;;;5034240;28;20079;-64
2023/06/25 05:32:29;;;;;;;11.77;9.05;;;;;;;;;;5032842;28;20470;-64
2023/06/25 05:34:55;;;;;;;12.65;9.93;;;;;;;;;;5033968;28;20049;-64
2023/06/25 05:37:20;;;;;;;12.02;9.32;;;;;;;;;;5049027;28;20060;-69
2023/06/25 05:39:45;;;;;;;15.55;9.85;;;;;;;;;;5033138;28;20345;-63
2023/06/25 05:42:11;;;;;;;12.40;9.30;;;;;;;;;;5048555;28;20037;-63
2023/06/25 05:44:36;;;;;;;13.77;9.73;;;;;;;;;;5033367;28;20086;-63
2023/06/25 05:47:01;;;;;;;14.63;11.02;;;;;;;;;;5032091;28;20025;-63
2023/06/25 05:49:27;;;;;;;13.63;9.85;;;;;;;;;;5033645;28;20047;-63
2023/06/25 05:51:52;;;;;;;15.40;10.68;;;;;;;;;;5031864;28;20048;-63
2023/06/25 05:54:17;;;;;;;15.48;11.02;;;;;;;;;;5033377;28;20363;-63
2023/06/25 05:56:43;;;;;;;13.63;10.50;;;;;;;;;;5033525;28;20037;-63
2023/06/25 05:59:09;;;;;;;13.98;10.38;;;;;;;;;;5033452;28;20116;-63
2023/06/25 06:01:34;;;;;;;16.25;11.07;;;;;;;;;;5033265;28;20375;-63
2023/06/25 06:04:00;;;;;;;15.65;10.65;;;;;;;;;;5033139;28;20145;-63
2023/06/25 06:06:26;;;;;;;14.32;10.25;;;;;;;;;;5031986;28;20056;-63
2023/06/25 06:08:51;;;;;;;16.38;11.80;;;;;;;;;;5032869;28;20472;-63
2023/06/25 06:11:17;;;;;;;13.70;10.73;;;;;;;;;;5015359;28;20022;-63
2023/06/25 06:13:43;;;;;;;16.02;11.68;;;;;;;;;;5033154;28;20104;-63
2023/06/25 06:16:08;;;;;;;18.08;13.60;;;;;;;;;;5033301;28;20544;-63
2023/06/25 06:18:34;;;;;;;17.38;12.90;;;;;;;;;;5033237;28;20380;-63
2023/06/25 06:20:59;;;;;;;16.63;12.68;;;;;;;;;;5033227;28;20025;-63
2023/06/25 06:23:24;;;;;;;13.77;11.15;;;;;;;;;;5032724;28;20038;-63
2023/06/25 06:25:50;;;;;;;11.65;10.02;;;;;;;;;;5032852;28;20072;-63
2023/06/25 06:28:15;;;;;;;13.93;11.52;;;;;;;;;;5031591;28;20061;-63
2023/06/25 06:30:41;;;;;;;14.32;11.15;;;;;;;;;;5031357;28;20108;-63
2023/06/25 06:33:06;;;;;;;12.38;9.57;;;;;;;;;;5032719;28;20097;-63
2023/06/25 06:35:31;;;;;;;10.05;8.93;;;;;;;;;;5031801;28;20033;-63
2023/06/25 06:37:57;;;;;;;11.52;9.70;;;;;;;;;;5033000;28;20365;-63
2023/06/25 06:40:23;;;;;;;14.35;9.88;;;;;;;;;;5033046;28;20484;-63
2023/06/25 06:42:48;;;;;;;12.77;9.45;;;;;;;;;;5031704;28;20033;-64
2023/06/25 06:45:16;;;;;;;10.68;9.18;;;;;;;;;;5048051;28;20033;-63
2023/06/25 06:47:41;;;;;;;12.52;9.40;;;;;;;;;;5031757;28;20032;-63
2023/06/25 06:50:06;;;;;;;11.30;9.07;;;;;;;;;;5048300;28;20084;-63
2023/06/25 06:52:32;;;;;;;10.43;8.45;;;;;;;;;;5033054;28;20057;-63
2023/06/25 06:54:57;;;;;;;10.50;8.25;;;;;;;;;;5031466;28;20026;-63
2023/06/25 06:57:22;;;;;;;10.98;8.52;;;;;;;;;;5032662;28;20026;-63
2023/06/25 06:59:48;;;;;;;8.68;7.65;;;;;;;;;;5032883;28;20456;-63
2023/06/25 07:02:13;;;;;;;10.15;8.38;;;;;;;;;;5032916;28;20036;-63
2023/06/25 07:04:38;;;;;;;11.80;9.02;;;;;;;;;;5033566;28;20029;-63
2023/06/25 07:07:04;;;;;;;10.55;8.02;;;;;;;;;;5035187;28;20034;-63
2023/06/25 07:09:30;;;;;;;12.25;7.40;;;;;;;;;;5036493;28;20072;-63
2023/06/25 07:11:55;;;;;;;8.98;7.13;;;;;;;;;;5035120;28;20022;-63
2023/06/25 07:14:21;;;;;;;10.13;6.78;;;;;;;;;;5034986;28;20440;-63
2023/06/25 07:16:47;;;;;;;9.93;7.15;;;;;;;;;;5034932;28;20515;-63
2023/06/25 07:19:12;;;;;;;8.80;7.00;;;;;;;;;;5036377;28;20033;-63
2023/06/25 07:21:38;;;;;;;8.77;7.32;;;;;;;;;;5039667;28;20105;-64
2023/06/25 07:24:04;;;;;;;10.70;8.18;;;;;;;;;;5039432;28;20033;-64
2023/06/25 07:26:29;;;;;;;7.80;6.82;;;;;;;;;;5041321;28;20033;-64
2023/06/25 07:28:55;;;;;;;8.50;6.97;;;;;;;;;;5050348;28;20040;-64
2023/06/25 07:31:20;;;;;;;8.40;7.15;;;;;;;;;;5052588;28;20036;-64
2023/06/25 07:33:46;;;;;;;7.93;6.95;;;;;;;;;;5052705;28;20025;-63
2023/06/25 07:36:11;;;;;;;7.05;6.22;;;;;;;;;;5053163;28;20506;-63
2023/06/25 07:38:36;;;;;;;5.95;5.25;;;;;;;;;;5052694;28;20111;-63
2023/06/25 07:41:02;;;;;;;9.90;5.75;;;;;;;;;;5052347;28;20043;-63
2023/06/25 07:43:27;;;;;;;9.55;6.65;;;;;;;;;;5051955;28;20063;-63
2023/06/25 07:45:52;;;;;;;7.88;6.00;;;;;;;;;;5051426;28;20037;-63
2023/06/25 07:48:18;;;;;;;5.22;4.72;;;;;;;;;;5052790;28;20032;-63
2023/06/25 07:50:43;;;;;;;8.23;5.30;;;;;;;;;;5051036;28;20040;-63
2023/06/25 07:53:11;;;;;;;4.70;4.28;;;;;;;;;;5050924;28;20033;-63
2023/06/25 07:55:41;;;;;;;6.80;4.95;;;;;;;;;;5052550;28;20040;-63
2023/06/25 07:58:07;;;;;;;5.72;5.07;;;;;;;;;;5050620;28;20045;-63
2023/06/25 08:00:33;;;;;;;6.22;5.20;;;;;;;;;;5052609;28;20041;-63
2023/06/25 08:02:58;;;;;;;6.15;4.90;;;;;;;;;;5051964;28;20036;-64
2023/06/25 08:05:24;;;;;;;6.50;4.47;;;;;;;;;;5051750;28;20730;-63
2023/06/25 08:07:50;;;;;;;4.18;3.88;;;;;;;;;;5052574;28;20029;-63
2023/06/25 08:10:15;;;;;;;6.88;5.22;;;;;;;;;;5052415;28;20040;-64
2023/06/25 08:12:40;;;;;;;6.00;5.03;;;;;;;;;;5052279;28;20356;-63
2023/06/25 08:15:06;;;;;;;7.65;5.47;;;;;;;;;;5033831;28;20041;-63
2023/06/25 08:17:31;;;;;;;8.07;5.13;;;;;;;;;;5052294;28;20025;-63
2023/06/25 08:19:58;;;;;;;6.05;4.60;;;;;;;;;;5051510;28;20136;-63
2023/06/25 08:22:23;;;;;;;6.70;4.78;;;;;;;;;;5051062;28;20123;-63
2023/06/25 08:24:48;;;;;;;5.53;4.80;;;;;;;;;;5050886;28;20159;-63
2023/06/25 08:27:14;;;;;;;3.97;3.70;;;;;;;;;;5031337;28;20037;-64
2023/06/25 08:29:39;;;;;;;4.53;3.88;;;;;;;;;;5050735;28;20028;-63
2023/06/25 08:32:05;;;;;;;5.07;4.60;;;;;;;;;;5050580;28;20166;-63
2023/06/25 08:34:30;;;;;;;5.88;4.00;;;;;;;;;;5049698;28;20032;-63
2023/06/25 08:36:56;;;;;;;5.30;4.65;;;;;;;;;;5049726;28;20057;-63
2023/06/25 08:39:21;;;;;;;5.80;4.80;;;;;;;;;;5051736;28;20037;-63
2023/06/25 08:41:47;;;;;;;4.65;4.25;;;;;;;;;;5051585;28;20502;-63
2023/06/25 08:44:13;;;;;;;5.28;4.78;;;;;;;;;;5051927;28;20112;-63
2023/06/25 08:46:44;;;;;;;5.43;4.93;;;;;;;;;;5051661;28;20112;-63
2023/06/25 08:49:09;;;;;;;4.90;4.47;;;;;;;;;;5052031;28;20106;-64
2023/06/25 08:51:35;;;;;;;4.75;4.45;;;;;;;;;;5051873;28;20502;-64
2023/06/25 08:54:01;;;;;;;5.60;5.10;;;;;;;;;;5053754;28;20107;-63
2023/06/25 08:56:27;;;;;;;5.25;4.80;;;;;;;;;;5054264;28;20024;-64
2023/06/25 08:58:52;;;;;;;5.15;4.72;;;;;;;;;;5049257;28;20136;-63
2023/06/25 09:01:18;;;;;;;5.30;4.38;;;;;;;;;;5047412;28;20053;-66
2023/06/25 09:03:43;;;;;;;5.95;4.40;;;;;;;;;;5051209;28;20048;-64
2023/06/25 09:06:13;;;;;;;4.90;4.40;;;;;;;;;;5049275;28;20087;-64
2023/06/25 09:08:39;;;;;;;5.45;4.90;;;;;;;;;;5050642;28;20040;-64
2023/06/25 09:11:04;;;;;;;4.40;4.00;;;;;;;;;;5049516;28;20021;-64
2023/06/25 09:13:29;;;;;;;4.93;4.50;;;;;;;;;;5032286;28;20075;-64
2023/06/25 09:16:02;;;;;;;4.57;4.05;;;;;;;;;;5050983;28;20033;-64
2023/06/25 09:18:29;;;;;;;5.57;5.05;;;;;;;;;;5050748;28;20605;-64
2023/06/25 09:20:55;;;;;;;5.90;4.47;;;;;;;;;;5051167;28;20041;-64
2023/06/25 09:23:21;;;;;;;4.30;3.88;;;;;;;;;;5051209;28;20091;-64
2023/06/25 09:25:49;;;;;;;5.57;4.97;;;;;;;;;;5049658;28;20037;-64
2023/06/25 09:28:14;;;;;;;8.25;4.97;;;;;;;;;;5050618;28;20550;-64
2023/06/25 09:30:41;;;;;;;5.15;4.65;;;;;;;;;;5051272;28;20036;-64
2023/06/25 09:33:06;;;;;;;4.93;4.45;;;;;;;;;;5049653;28;20513;-64
2023/06/25 09:35:32;;;;;;;7.45;4.72;;;;;;;;;;5051130;28;20029;-64
2023/06/25 09:37:57;;;;;;;5.53;5.13;;;;;;;;;;5051540;28;20406;-64
2023/06/25 09:40:24;;;;;;;6.97;5.18;;;;;;;;;;5054462;28;20068;-64
2023/06/25 09:42:52;;;;;;;6.20;4.57;;;;;;;;;;5053287;28;20035;-64
2023/06/25 09:45:19;;;;;;;16.90;6.10;;;;;;;;;;5054321;28;20040;-66
2023/06/25 09:47:46;;;;;;;5.82;5.20;;;;;;;;;;5054523;28;20061;-63
2023/06/25 09:50:22;;;;;;;6.13;5.57;;;;;;;;;;5067860;22;20039;-70
2023/06/25 09:52:52;;;;;;;5.32;4.80;;;;;;;;;;5014862;28;20383;-70
2023/06/25 09:55:18;;;;;;;6.07;5.05;;;;;;;;;;5033729;28;20464;-70
2023/06/25 09:57:44;;;;;;;6.07;4.93;;;;;;;;;;5033998;28;20033;-70
2023/06/25 10:00:10;;;;;;;8.57;5.00;;;;;;;;;;5034362;28;20040;-71
2023/06/25 10:02:37;;;;;;;5.15;4.65;;;;;;;;;;5033274;28;20443;-64
2023/06/25 10:05:08;;;;;;;6.55;4.70;;;;;;;;;;5027773;23;20057;-64
2023/06/25 10:07:34;;;;;;;18.45;6.25;;;;;;;;;;5016032;28;20396;-63
2023/06/25 10:09:59;;;;;;;7.93;5.20;;;;;;;;;;5033803;28;20096;-63
2023/06/25 10:12:25;;;;;;;9.40;6.85;;;;;;;;;;5033927;28;20033;-64
2023/06/25 10:14:52;;;;;;;6.25;5.65;;;;;;;;;;5033018;28;20025;-64
2023/06/25 10:17:19;;;;;;;7.00;5.57;;;;;;;;;;5015365;28;20043;-64
2023/06/25 10:20:11;;;;;;;7.43;6.18;;;;;;;;;;5032668;28;20022;-63
2023/06/25 10:22:38;;;;;;;6.15;5.03;;;;;;;;;;5029373;28;20388;-63
2023/06/25 10:25:03;;;;;;;4.25;3.88;;;;;;;;;;5032458;28;20034;-64
2023/06/25 10:27:29;;;;;;;5.93;4.40;;;;;;;;;;5032619;28;20116;-64
2023/06/25 10:29:56;;;;;;;4.82;4.43;;;;;;;;;;5032915;28;20029;-63
2023/06/25 10:32:31;;;;;;;4.88;4.38;;;;;;;;;;5033112;28;20460;-63
2023/06/25 10:34:56;;;;;;;6.20;4.38;;;;;;;;;;5033484;28;20024;-64
2023/06/25 10:37:27;;;;;;;5.25;3.97;;;;;;;;;;5033171;28;20029;-64
2023/06/25 10:40:00;;;;;;;4.78;4.03;;;;;;;;;;5036206;28;20040;-63
2023/06/25 10:42:25;;;;;;;4.68;4.20;;;;;;;;;;5036945;28;20025;-64
2023/06/25 10:44:50;;;;;;;4.50;4.15;;;;;;;;;;5019589;28;20030;-64
2023/06/25 10:47:15;;;;;;;20.33;11.77;;;;;;;;;;5036960;28;20464;-64
2023/06/25 10:49:41;;;;;;;6.82;4.82;;;;;;;;;;5019164;28;20040;-64
2023/06/25 10:52:07;;;;;;;4.90;4.50;;;;;;;;;;5019224;28;20419;-64
2023/06/25 10:54:32;;;;;;;5.28;4.78;;;;;;;;;;5037499;28;20037;-64
2023/06/25 10:57:08;;;;;;;19.73;8.93;;;;;;;;;;5037157;28;20037;-64
2023/06/25 10:59:33;;;;;;;14.68;7.75;;;;;;;;;;5036861;28;20029;-64
2023/06/25 11:02:18;;;;;;;8.98;5.97;;;;;;;;;;5037125;28;20037;-64
2023/06/25 11:04:54;;;;;;;5.65;4.63;;;;;;;;;;5036766;28;20471;-64
2023/06/25 11:07:20;;;;;;;5.00;4.50;;;;;;;;;;5019026;28;20040;-64
2023/06/25 11:09:50;;;;;;;5.38;4.90;;;;;;;;;;5036963;28;20100;-64
2023/06/25 11:12:16;;;;;;;;;;;;;;;;;;5036978;28;20025;-64
2023/06/25 11:14:41;;;;;;;5.03;4.45;;;;;;;;;;5018829;28;19905;-64
2023/06/25 11:17:06;;;;;;;4.95;4.40;;;;;;;;;;5036491;28;20061;-64
2023/06/25 11:19:31;;;;;;;4.20;3.83;;;;;;;;;;5036752;28;20025;-64
2023/06/25 11:21:57;;;;;;;5.10;4.65;;;;;;;;;;5036412;28;20479;-64
2023/06/25 11:24:22;;;;;;;10.63;7.75;;;;;;;;;;5036680;28;20028;-64
2023/06/25 11:26:55;;;;;;;10.63;7.55;;;;;;;;;;5036148;28;20438;-64
2023/06/25 11:29:20;;;;;;;19.90;8.68;;;;;;;;;;5036587;28;20478;-64
2023/06/25 11:31:52;;;;;;;12.80;7.05;;;;;;;;;;5036256;28;20038;-64
2023/06/25 11:34:20;;;;;;;16.05;9.18;;;;;;;;;;5036464;28;20022;-64
2023/06/25 11:36:47;;;;;;;8.35;5.28;;;;;;;;;;5036203;28;20024;-64
2023/06/25 11:39:12;;;;;;;14.15;8.63;;;;;;;;;;5036367;28;20033;-64
2023/06/25 11:41:38;;;;;;;7.28;6.57;;;;;;;;;;5035990;28;20029;-63
2023/06/25 11:44:03;;;;;;;7.07;5.15;;;;;;;;;;5036277;28;20464;-64
2023/06/25 11:46:28;;;;;;;5.95;5.15;;;;;;;;;;5018077;28;20039;-64
2023/06/25 11:48:54;;;;;;;7.43;5.47;;;;;;;;;;5036164;28;20033;-64
2023/06/25 11:51:19;;;;;;;7.10;5.53;;;;;;;;;;5035416;28;20414;-64
2023/06/25 11:53:44;;;;;;;6.68;5.45;;;;;;;;;;5036393;28;20040;-64
2023/06/25 11:56:10;;;;;;;5.95;5.32;;;;;;;;;;5035752;28;20036;-64
2023/06/25 11:58:35;;;;;;;6.28;5.13;;;;;;;;;;5036044;28;20037;-64
2023/06/25 12:01:01;;;;;;;7.28;6.35;;;;;;;;;;5018366;28;20025;-64
2023/06/25 12:03:26;;;;;;;8.30;6.20;;;;;;;;;;5036182;28;20029;-64
2023/06/25 12:05:51;;;;;;;8.63;5.93;;;;;;;;;;5035396;28;20038;-64
2023/06/25 12:08:17;;;;;;;6.40;5.22;;;;;;;;;;5017787;28;20116;-64
2023/06/25 12:10:42;;;;;;;5.57;4.72;;;;;;;;;;5035717;28;20099;-64
2023/06/25 12:13:07;;;;;;;5.63;5.22;;;;;;;;;;5035732;28;20029;-64
2023/06/25 12:15:33;;;;;;;22.45;9.77;;;;;;;;;;5058644;23;20566;-70
2023/06/25 12:17:59;;;;;;;6.85;5.80;;;;;;;;;;5054637;28;20029;-64
2023/06/25 12:20:24;;;;;;;10.82;6.22;;;;;;;;;;5055185;28;20037;-64
2023/06/25 12:22:49;;;;;;;8.52;5.88;;;;;;;;;;5053986;28;20025;-64
2023/06/25 12:25:15;;;;;;;6.35;4.90;;;;;;;;;;5053858;28;20521;-64
2023/06/25 12:27:40;;;;;;;8.27;5.18;;;;;;;;;;5053839;28;20036;-64
2023/06/25 12:30:09;;;;;;;10.02;5.80;;;;;;;;;;5055348;28;20079;-64
2023/06/25 12:32:34;;;;;;;6.18;4.22;;;;;;;;;;5055588;28;20024;-64
2023/06/25 12:34:59;;;;;;;5.15;4.68;;;;;;;;;;5054953;28;20025;-64
2023/06/25 12:37:24;;;;;;;4.93;4.53;;;;;;;;;;5055003;28;20017;-64
2023/06/25 12:39:50;;;;;;;5.13;4.38;;;;;;;;;;5054905;28;20471;-64
2023/06/25 12:42:16;;;;;;;11.93;6.57;;;;;;;;;;5054885;28;20032;-64
2023/06/25 12:44:41;;;;;;;17.55;8.63;;;;;;;;;;5055054;28;20108;-64
2023/06/25 12:47:06;;;;;;;5.47;4.97;;;;;;;;;;5054738;28;20502;-64
2023/06/25 12:49:32;;;;;;;5.65;4.78;;;;;;;;;;5054672;28;20483;-64
2023/06/25 12:51:57;;;;;;;4.85;4.35;;;;;;;;;;5054801;28;20021;-64
2023/06/25 12:54:22;;;;;;;4.07;3.78;;;;;;;;;;5054619;28;20526;-64
2023/06/25 12:56:48;;;;;;;4.05;3.72;;;;;;;;;;5054854;28;20028;-64
2023/06/25 12:59:13;;;;;;;4.45;3.80;;;;;;;;;;5054487;28;20040;-64
2023/06/25 13:01:38;;;;;;;3.65;3.45;;;;;;;;;;5054091;28;20117;-64
2023/06/25 13:04:04;;;;;;;4.47;3.90;;;;;;;;;;5052825;28;20468;-64
2023/06/25 13:06:29;;;;;;;4.55;4.22;;;;;;;;;;5054563;28;20119;-64
2023/06/25 13:08:55;;;;;;;4.85;4.53;;;;;;;;;;5054368;28;20028;-64
2023/06/25 13:11:20;;;;;;;4.22;3.75;;;;;;;;;;5053065;28;20036;-64
2023/06/25 13:13:45;;;;;;;5.63;3.70;;;;;;;;;;5054237;28;20029;-64
2023/06/25 13:16:12;;;;;;;4.15;3.85;;;;;;;;;;5054237;28;20135;-64
2023/06/25 13:18:40;;;;;;;4.85;4.45;;;;;;;;;;5054465;28;20048;-64
2023/06/25 13:21:06;;;;;;;4.63;4.07;;;;;;;;;;5036031;28;20031;-64
2023/06/25 13:23:31;;;;;;;4.07;3.78;;;;;;;;;;5053863;28;20032;-64
2023/06/25 13:25:56;;;;;;;4.00;3.55;;;;;;;;;;5036148;28;20040;-64
2023/06/25 13:28:22;;;;;;;3.85;3.55;;;;;;;;;;5053771;28;20029;-64
2023/06/25 13:30:47;;;;;;;4.30;3.65;;;;;;;;;;5052226;28;20108;-64
2023/06/25 13:33:13;;;;;;;3.53;3.33;;;;;;;;;;5052625;28;20121;-64
2023/06/25 13:35:38;;;;;;;3.88;3.58;;;;;;;;;;5036022;28;20049;-64
2023/06/25 13:38:03;;;;;;;3.50;3.20;;;;;;;;;;5053555;28;20033;-64
2023/06/25 13:40:29;;;;;;;3.35;3.05;;;;;;;;;;5053806;28;20029;-64
2023/06/25 13:42:54;;;;;;;3.58;3.30;;;;;;;;;;5053614;28;20116;-64
2023/06/25 13:45:19;;;;;;;4.25;3.40;;;;;;;;;;5035440;28;20045;-64
2023/06/25 13:47:45;;;;;;;3.50;3.28;;;;;;;;;;5053027;28;20021;-64
2023/06/25 13:50:10;;;;;;;3.65;3.30;;;;;;;;;;5053119;28;20375;-64
2023/06/25 13:52:36;;;;;;;3.75;3.33;;;;;;;;;;5035549;28;20029;-64
2023/06/25 13:55:01;;;;;;;3.33;3.08;;;;;;;;;;5053362;28;20044;-64
2023/06/25 13:57:27;;;;;;;3.08;2.88;;;;;;;;;;5052773;28;20029;-64
2023/06/25 13:59:52;;;;;;;3.47;3.17;;;;;;;;;;5034876;28;20033;-64
2023/06/25 14:02:17;;;;;;;3.20;3.00;;;;;;;;;;5034887;28;20427;-64
2023/06/25 14:04:43;;;;;;;3.13;2.92;;;;;;;;;;5052559;28;20032;-64
2023/06/25 14:07:08;;;;;;;3.55;2.83;;;;;;;;;;5052615;28;20159;-64
2023/06/25 14:09:33;;;;;;;4.90;3.42;;;;;;;;;;5053122;28;20055;-64
2023/06/25 14:11:59;;;;;;;3.03;2.83;;;;;;;;;;5034709;28;20025;-64
2023/06/25 14:14:24;;;;;;;3.13;2.92;;;;;;;;;;5054862;28;20108;-65
2023/06/25 14:16:49;;;;;;;3.28;2.92;;;;;;;;;;5056787;28;20059;-64
2023/06/25 14:19:16;;;;;;;3.08;2.88;;;;;;;;;;5056955;28;20359;-64
2023/06/25 14:21:42;;;;;;;3.83;3.17;;;;;;;;;;5039457;28;20036;-64
2023/06/25 14:24:07;;;;;;;3.33;3.05;;;;;;;;;;5057193;28;20029;-64
2023/06/25 14:26:32;;;;;;;3.33;3.03;;;;;;;;;;5039119;28;20404;-64
2023/06/25 14:28:58;;;;;;;3.42;3.22;;;;;;;;;;5056821;28;20037;-64
2023/06/25 14:31:23;;;;;;;3.53;3.28;;;;;;;;;;5039472;28;20064;-64
2023/06/25 14:33:50;;;;;;;3.70;3.50;;;;;;;;;;5057522;28;20362;-64